Time,TemperatureF,DewpointF,PressureIn,WindDirection,WindDirectionDegrees,WindSpeedMPH,WindSpeedGustMPH,Humidity,HourlyPrecipIn,Conditions,Clouds,dailyrainin,SolarRadiationWatts/m^2,SoftwareType,DateUTC
2013-02-05 00:05:00,44.5,36.7,30.25,North,360,1.0,1.0,74,0.00,,,0.00,0,Wunderground v.1.15,2013-02-04 23:05:00,
2013-02-05 00:15:00,44.5,36.7,30.25,North,360,1.0,1.0,74,0.00,,,0.00,0,Wunderground v.1.15,2013-02-04 23:15:00,
2013-02-05 00:25:00,44.4,36.6,30.25,North,360,1.0,1.0,74,0.00,,,0.00,0,Wunderground v.1.15,2013-02-04 23:25:00,
2013-02-05 00:40:00,44.4,36.6,30.25,North,360,1.0,1.0,74,0.00,,,0.00,0,Wunderground v.1.15,2013-02-04 23:40:00,
2013-02-05 00:51:00,44.4,36.6,30.25,ESE,113,1.0,1.0,74,0.00,,,0.00,0,Wunderground v.1.15,2013-02-04 23:51:00,
2013-02-05 01:10:00,44.6,36.8,30.25,ESE,113,0.0,0.0,74,0.00,,,0.00,0,Wunderground v.1.15,2013-02-05 00:10:00,
2013-02-05 01:20:00,44.7,36.9,30.24,ENE,73,1.0,2.0,74,0.00,,,0.00,0,Wunderground v.1.15,2013-02-05 00:20:00,
2013-02-05 01:36:00,44.6,36.8,30.24,ENE,72,1.0,1.0,74,0.00,,,0.00,0,Wunderground v.1.15,2013-02-05 00:36:00,
2013-02-05 01:45:00,44.6,36.8,30.24,ENE,73,0.0,0.0,74,0.00,,,0.00,0,Wunderground v.1.15,2013-02-05 00:45:00,
2013-02-05 02:05:00,44.3,36.9,30.23,NW,313,1.0,1.0,75,0.00,,,0.00,0,Wunderground v.1.15,2013-02-05 01:05:00,
2013-02-05 02:15:00,44.4,37.0,30.23,NW,313,0.0,0.0,75,0.00,,,0.00,0,Wunderground v.1.15,2013-02-05 01:15:00,
2013-02-05 02:25:00,44.4,37.3,30.23,NW,313,1.0,2.0,76,0.00,,,0.00,0,Wunderground v.1.15,2013-02-05 01:25:00,
2013-02-05 02:36:00,44.5,37.4,30.23,West,280,1.0,1.0,76,0.00,,,0.00,0,Wunderground v.1.15,2013-02-05 01:36:00,
2013-02-05 02:51:00,44.3,37.2,30.23,West,280,1.0,2.0,76,0.00,,,0.00,0,Wunderground v.1.15,2013-02-05 01:51:00,
2013-02-05 03:06:00,44.3,37.5,30.23,WNW,285,0.0,0.0,77,0.00,,,0.00,0,Wunderground v.1.15,2013-02-05 02:06:00,
2013-02-05 03:16:00,44.2,37.8,30.22,WNW,284,1.0,1.0,78,0.00,,,0.00,0,Wunderground v.1.15,2013-02-05 02:16:00,
2013-02-05 03:25:00,44.1,37.7,30.22,WNW,285,1.0,1.0,78,0.00,,,0.00,0,Wunderground v.1.15,2013-02-05 02:25:00,
2013-02-05 03:30:00,44.0,37.6,30.22,WSW,246,2.0,2.0,78,0.00,,,0.00,0,Wunderground v.1.15,2013-02-05 02:30:00,
2013-02-05 03:41:00,43.8,37.7,30.22,WSW,253,2.0,2.0,79,0.00,,,0.00,0,Wunderground v.1.15,2013-02-05 02:41:00,
2013-02-05 03:55:00,44.0,38.2,30.21,West,267,1.0,1.0,80,0.00,,,0.00,0,Wunderground v.1.15,2013-02-05 02:55:00,
2013-02-05 04:10:00,44.0,38.2,30.20,West,267,0.0,0.0,80,0.00,,,0.00,0,Wunderground v.1.15,2013-02-05 03:10:00,
2013-02-05 04:26:00,43.8,38.0,30.20,West,267,1.0,1.0,80,0.00,,,0.00,0,Wunderground v.1.15,2013-02-05 03:26:00,
2013-02-05 04:36:00,43.8,38.3,30.20,WSW,258,1.0,1.0,81,0.00,,,0.00,0,Wunderground v.1.15,2013-02-05 03:36:00,
2013-02-05 04:50:00,43.8,38.3,30.19,WSW,256,1.0,1.0,81,0.00,,,0.00,0,Wunderground v.1.15,2013-02-05 03:50:00,
2013-02-05 05:06:00,43.9,38.4,30.19,West,266,2.0,2.0,81,0.00,,,0.00,0,Wunderground v.1.15,2013-02-05 04:06:00,
2013-02-05 05:15:00,44.3,39.2,30.18,WNW,286,2.0,2.0,82,0.00,,,0.00,0,Wunderground v.1.15,2013-02-05 04:15:00,
2013-02-05 05:25:00,44.4,39.6,30.18,West,272,2.0,3.0,83,0.00,,,0.00,0,Wunderground v.1.15,2013-02-05 04:25:00,
2013-02-05 05:40:00,45.6,40.4,30.18,West,273,3.0,3.0,82,0.00,,,0.00,0,Wunderground v.1.15,2013-02-05 04:40:00,
2013-02-05 05:50:00,46.5,41.3,30.18,WNW,290,3.0,4.0,82,0.00,,,0.00,0,Wunderground v.1.15,2013-02-05 04:50:00,
2013-02-05 06:05:00,46.7,40.9,30.17,West,269,2.0,2.0,80,0.00,,,0.00,0,Wunderground v.1.15,2013-02-05 05:05:00,
2013-02-05 06:15:00,46.7,40.5,30.18,West,271,2.0,2.0,79,0.00,,,0.00,0,Wunderground v.1.15,2013-02-05 05:15:00,
2013-02-05 06:20:00,46.6,40.1,30.17,West,271,2.0,2.0,78,0.00,,,0.00,0,Wunderground v.1.15,2013-02-05 05:20:00,
2013-02-05 06:26:00,46.3,39.8,30.17,WNW,296,2.0,3.0,78,0.00,,,0.00,0,Wunderground v.1.15,2013-02-05 05:26:00,
2013-02-05 06:41:00,46.1,39.9,30.17,West,273,2.0,2.0,79,0.00,,,0.00,0,Wunderground v.1.15,2013-02-05 05:41:00,
2013-02-05 06:55:00,46.1,39.6,30.17,West,281,0.0,0.0,78,0.00,,,0.00,0,Wunderground v.1.15,2013-02-05 05:55:00,
2013-02-05 07:10:00,45.7,39.2,30.16,WNW,296,1.0,1.0,78,0.00,,,0.00,0,Wunderground v.1.15,2013-02-05 06:10:00,
2013-02-05 07:15:00,45.5,39.0,30.16,WNW,296,1.0,1.0,78,0.00,,,0.00,0,Wunderground v.1.15,2013-02-05 06:15:00,
2013-02-05 07:21:00,45.3,38.8,30.16,North,355,1.0,1.0,78,0.00,,,0.00,0,Wunderground v.1.15,2013-02-05 06:21:00,
2013-02-05 07:35:00,45.0,38.9,30.16,North,355,1.0,1.0,79,0.00,,,0.00,0,Wunderground v.1.15,2013-02-05 06:35:00,
2013-02-05 07:50:00,45.0,39.2,30.16,North,355,1.0,1.0,80,0.00,,,0.00,5,Wunderground v.1.15,2013-02-05 06:50:00,
2013-02-05 08:05:00,45.0,39.2,30.17,North,355,1.0,1.0,80,0.00,,,0.00,25,Wunderground v.1.15,2013-02-05 07:05:00,
2013-02-05 08:15:00,45.0,39.2,30.17,North,355,0.0,0.0,80,0.00,,,0.00,46,Wunderground v.1.15,2013-02-05 07:15:00,
2013-02-05 08:25:00,45.2,39.7,30.17,North,355,1.0,1.0,81,0.00,,,0.00,70,Wunderground v.1.15,2013-02-05 07:25:00,
2013-02-05 08:35:00,45.6,40.1,30.16,North,355,0.0,0.0,81,0.00,,,0.00,102,Wunderground v.1.15,2013-02-05 07:35:00,
2013-02-05 08:41:00,46.0,40.5,30.16,North,355,0.0,1.0,81,0.00,,,0.00,118,Wunderground v.1.15,2013-02-05 07:41:00,
2013-02-05 08:55:00,47.1,41.9,30.16,North,355,1.0,1.0,82,0.00,,,0.00,160,Wunderground v.1.15,2013-02-05 07:55:00,
2013-02-05 09:05:00,48.1,42.9,30.16,North,355,1.0,1.0,82,0.00,,,0.00,195,Wunderground v.1.15,2013-02-05 08:05:00,
2013-02-05 09:15:00,49.2,43.6,30.16,WSW,245,1.0,1.0,81,0.00,,,0.00,237,Wunderground v.1.15,2013-02-05 08:15:00,
2013-02-05 09:20:00,49.9,44.3,30.16,SE,126,1.0,1.0,81,0.00,,,0.00,234,Wunderground v.1.15,2013-02-05 08:20:00,
2013-02-05 09:30:00,51.1,44.8,30.16,North,5,1.0,1.0,79,0.00,,,0.00,269,Wunderground v.1.15,2013-02-05 08:30:00,
2013-02-05 09:40:00,52.6,45.9,30.16,South,175,2.0,2.0,78,0.00,,,0.00,360,Wunderground v.1.15,2013-02-05 08:40:00,
2013-02-05 09:50:00,54.2,46.4,30.16,SE,134,2.0,4.0,75,0.00,,,0.00,390,Wunderground v.1.15,2013-02-05 08:50:00,
2013-02-05 10:05:00,55.5,45.5,30.15,SSE,155,5.0,5.0,69,0.00,,,0.00,207,Wunderground v.1.15,2013-02-05 09:05:00,
2013-02-05 10:20:00,55.0,45.0,30.15,South,178,5.0,5.0,69,0.00,,,0.00,185,Wunderground v.1.15,2013-02-05 09:20:00,
2013-02-05 10:30:00,55.5,46.2,30.15,SSW,198,5.0,5.0,71,0.00,,,0.00,461,Wunderground v.1.15,2013-02-05 09:30:00,
2013-02-05 10:45:00,55.4,46.2,30.15,South,169,4.0,4.0,71,0.00,,,0.00,580,Wunderground v.1.15,2013-02-05 09:45:00,
2013-02-05 10:55:00,55.7,47.2,30.15,SSW,210,4.0,4.0,73,0.00,,,0.00,533,Wunderground v.1.15,2013-02-05 09:55:00,
2013-02-05 11:06:00,56.6,48.0,30.15,South,173,4.0,4.0,73,0.00,,,0.00,527,Wunderground v.1.15,2013-02-05 10:06:00,
2013-02-05 11:20:00,58.3,48.2,30.14,South,172,3.0,4.0,69,0.00,,,0.00,547,Wunderground v.1.15,2013-02-05 10:20:00,
2013-02-05 11:30:00,59.0,47.2,30.14,NNE,19,3.0,3.0,65,0.00,,,0.00,622,Wunderground v.1.15,2013-02-05 10:30:00,
2013-02-05 11:36:00,59.0,46.8,30.15,South,185,3.0,3.0,64,0.00,,,0.00,640,Wunderground v.1.15,2013-02-05 10:36:00,
2013-02-05 11:50:00,60.0,46.1,30.14,WNW,298,5.0,5.0,60,0.00,,,0.00,608,Wunderground v.1.15,2013-02-05 10:50:00,
2013-02-05 12:05:00,61.2,44.9,30.15,WSW,241,4.0,4.0,55,0.00,,,0.00,599,Wunderground v.1.15,2013-02-05 11:05:00,
2013-02-05 12:16:00,60.9,44.6,30.14,North,350,6.0,6.0,55,0.00,,,0.00,606,Wunderground v.1.15,2013-02-05 11:16:00,
2013-02-05 12:30:00,59.8,44.1,30.13,NW,325,8.0,9.0,56,0.00,,,0.00,615,Wunderground v.1.15,2013-02-05 11:30:00,
2013-02-05 12:41:00,60.2,44.4,30.13,WNW,291,6.0,6.0,56,0.00,,,0.00,619,Wunderground v.1.15,2013-02-05 11:41:00,
2013-02-05 12:55:00,60.2,44.9,30.11,NW,313,6.0,8.0,57,0.00,,,0.00,626,Wunderground v.1.15,2013-02-05 11:55:00,
2013-02-05 13:06:00,59.7,44.4,30.11,WNW,292,8.0,13.0,57,0.00,,,0.00,624,Wunderground v.1.15,2013-02-05 12:06:00,
2013-02-05 13:20:00,59.8,45.0,30.10,NW,313,7.0,7.0,58,0.00,,,0.00,624,Wunderground v.1.15,2013-02-05 12:20:00,
2013-02-05 13:31:00,60.6,45.3,30.09,WNW,295,6.0,7.0,57,0.00,,,0.00,619,Wunderground v.1.15,2013-02-05 12:31:00,
2013-02-05 13:40:00,61.2,45.4,30.09,West,271,7.0,8.0,56,0.00,,,0.00,615,Wunderground v.1.15,2013-02-05 12:40:00,
2013-02-05 13:50:00,62.2,45.8,30.09,WSW,250,5.0,5.0,55,0.00,,,0.00,608,Wunderground v.1.15,2013-02-05 12:50:00,
2013-02-05 14:05:00,61.7,44.9,30.09,SW,214,6.0,6.0,54,0.00,,,0.00,624,Wunderground v.1.15,2013-02-05 13:05:00,
2013-02-05 14:15:00,61.3,45.0,30.08,WSW,238,5.0,6.0,55,0.00,,,0.00,659,Wunderground v.1.15,2013-02-05 13:15:00,
2013-02-05 14:25:00,61.6,45.3,30.08,WSW,248,4.0,4.0,55,0.00,,,0.00,606,Wunderground v.1.15,2013-02-05 13:25:00,
2013-02-05 14:35:00,61.7,45.4,30.07,South,184,3.0,3.0,55,0.00,,,0.00,610,Wunderground v.1.15,2013-02-05 13:35:00,
2013-02-05 14:46:00,62.0,45.2,30.07,West,280,4.0,4.0,54,0.00,,,0.00,684,Wunderground v.1.15,2013-02-05 13:46:00,
2013-02-05 14:55:00,62.5,45.1,30.07,West,266,3.0,7.0,53,0.00,,,0.00,580,Wunderground v.1.15,2013-02-05 13:55:00,
2013-02-05 15:06:00,61.4,44.6,30.06,West,265,5.0,8.0,54,0.00,,,0.00,520,Wunderground v.1.15,2013-02-05 14:06:00,
2013-02-05 15:15:00,61.2,44.4,30.06,West,266,4.0,8.0,54,0.00,,,0.00,496,Wunderground v.1.15,2013-02-05 14:15:00,
2013-02-05 15:20:00,61.4,44.6,30.05,SW,232,3.0,3.0,54,0.00,,,0.00,483,Wunderground v.1.15,2013-02-05 14:20:00,
2013-02-05 15:35:00,60.7,43.5,30.05,NW,304,5.0,5.0,53,0.00,,,0.00,452,Wunderground v.1.15,2013-02-05 14:35:00,
2013-02-05 15:45:00,60.8,44.0,30.04,SE,128,2.0,4.0,54,0.00,,,0.00,427,Wunderground v.1.15,2013-02-05 14:45:00,
2013-02-05 15:55:00,61.0,43.7,30.04,WNW,296,2.0,6.0,53,0.00,,,0.00,397,Wunderground v.1.15,2013-02-05 14:55:00,
2013-02-05 16:06:00,61.0,43.7,30.04,SW,215,4.0,5.0,53,0.00,,,0.00,373,Wunderground v.1.15,2013-02-05 15:06:00,
2013-02-05 16:15:00,60.4,43.2,30.04,WNW,298,6.0,6.0,53,0.00,,,0.00,359,Wunderground v.1.15,2013-02-05 15:15:00,
2013-02-05 16:20:00,60.3,43.1,30.04,SW,230,5.0,7.0,53,0.00,,,0.00,330,Wunderground v.1.15,2013-02-05 15:20:00,
2013-02-05 16:35:00,60.1,43.4,30.04,WSW,252,4.0,6.0,54,0.00,,,0.00,281,Wunderground v.1.15,2013-02-05 15:35:00,
2013-02-05 16:46:00,60.0,42.8,30.03,NW,317,3.0,4.0,53,0.00,,,0.00,253,Wunderground v.1.15,2013-02-05 15:46:00,
2013-02-05 16:55:00,60.0,42.8,30.03,NW,318,2.0,4.0,53,0.00,,,0.00,211,Wunderground v.1.15,2013-02-05 15:55:00,
2013-02-05 17:06:00,59.7,43.0,30.02,NW,326,3.0,3.0,54,0.00,,,0.00,188,Wunderground v.1.15,2013-02-05 16:06:00,
2013-02-05 17:20:00,59.8,43.1,30.02,West,261,2.0,2.0,54,0.00,,,0.00,142,Wunderground v.1.15,2013-02-05 16:20:00,
2013-02-05 17:31:00,59.7,43.0,30.01,SW,215,3.0,4.0,54,0.00,,,0.00,113,Wunderground v.1.15,2013-02-05 16:31:00,
2013-02-05 17:45:00,59.0,42.8,30.02,WSW,257,2.0,3.0,55,0.00,,,0.00,16,Wunderground v.1.15,2013-02-05 16:45:00,
2013-02-05 18:05:00,57.6,42.5,30.01,WSW,254,2.0,2.0,57,0.00,,,0.00,7,Wunderground v.1.15,2013-02-05 17:05:00,
2013-02-05 18:11:00,57.3,42.6,30.01,WNW,300,3.0,9.0,58,0.00,,,0.00,5,Wunderground v.1.15,2013-02-05 17:11:00,
2013-02-05 18:21:00,56.9,42.7,30.01,West,267,5.0,6.0,59,0.00,,,0.00,0,Wunderground v.1.15,2013-02-05 17:21:00,
2013-02-05 18:30:00,56.4,43.1,30.01,South,182,3.0,6.0,61,0.00,,,0.00,0,Wunderground v.1.15,2013-02-05 17:30:00,
2013-02-05 18:35:00,56.1,43.3,30.00,SE,133,2.0,2.0,62,0.00,,,0.00,0,Wunderground v.1.15,2013-02-05 17:35:00,
2013-02-05 18:45:00,55.5,43.1,30.00,ESE,121,2.0,7.0,63,0.00,,,0.00,0,Wunderground v.1.15,2013-02-05 17:45:00,
2013-02-05 19:05:00,54.2,42.7,30.00,SW,233,1.0,1.0,65,0.00,,,0.00,0,Wunderground v.1.15,2013-02-05 18:05:00,
2013-02-05 19:15:00,53.9,42.8,30.00,WSW,242,2.0,2.0,66,0.00,,,0.00,0,Wunderground v.1.15,2013-02-05 18:15:00,
2013-02-05 19:25:00,53.5,42.4,30.00,WSW,243,1.0,1.0,66,0.00,,,0.00,0,Wunderground v.1.15,2013-02-05 18:25:00,
2013-02-05 19:35:00,53.0,42.3,30.00,West,279,2.0,6.0,67,0.00,,,0.00,0,Wunderground v.1.15,2013-02-05 18:35:00,
2013-02-05 19:50:00,53.6,43.3,29.99,South,190,5.0,5.0,68,0.00,,,0.00,0,Wunderground v.1.15,2013-02-05 18:50:00,
2013-02-05 20:05:00,53.7,43.4,29.99,SW,230,4.0,6.0,68,0.00,,,0.00,0,Wunderground v.1.15,2013-02-05 19:05:00,
2013-02-05 20:10:00,53.6,43.3,29.99,SSW,211,4.0,6.0,68,0.00,,,0.00,0,Wunderground v.1.15,2013-02-05 19:10:00,
2013-02-05 20:20:00,53.2,43.3,29.99,SSW,213,4.0,5.0,69,0.00,,,0.00,0,Wunderground v.1.15,2013-02-05 19:20:00,
2013-02-05 20:30:00,52.9,43.7,29.98,SW,221,4.0,5.0,71,0.00,,,0.00,0,Wunderground v.1.15,2013-02-05 19:30:00,
2013-02-05 20:35:00,52.8,44.0,29.98,SSE,166,5.0,5.0,72,0.00,,,0.00,0,Wunderground v.1.15,2013-02-05 19:35:00,
2013-02-05 20:45:00,52.6,44.5,29.98,SSW,195,4.0,6.0,74,0.00,,,0.00,0,Wunderground v.1.15,2013-02-05 19:45:00,
2013-02-05 20:55:00,52.3,45.0,29.97,SW,218,4.0,5.0,76,0.00,,,0.00,0,Wunderground v.1.15,2013-02-05 19:55:00,
2013-02-05 21:10:00,52.1,45.8,29.97,SSW,204,4.0,4.0,79,0.00,,,0.00,0,Wunderground v.1.15,2013-02-05 20:10:00,
2013-02-05 21:20:00,51.9,45.6,29.97,South,191,2.0,3.0,79,0.00,,,0.00,0,Wunderground v.1.15,2013-02-05 20:20:00,
2013-02-05 21:30:00,51.4,45.1,29.97,WSW,239,2.0,3.0,79,0.00,,,0.00,0,Wunderground v.1.15,2013-02-05 20:30:00,
2013-02-05 21:45:00,50.9,44.3,29.96,SW,218,3.0,3.0,78,0.00,,,0.00,0,Wunderground v.1.15,2013-02-05 20:45:00,
2013-02-05 21:55:00,51.1,44.1,29.95,SSE,150,4.0,4.0,77,0.00,,,0.00,0,Wunderground v.1.15,2013-02-05 20:55:00,
2013-02-05 22:10:00,51.4,43.7,29.95,South,176,4.0,4.0,75,0.00,,,0.00,0,Wunderground v.1.15,2013-02-05 21:10:00,
2013-02-05 22:20:00,51.4,43.4,29.95,SSW,200,5.0,5.0,74,0.00,,,0.00,0,Wunderground v.1.15,2013-02-05 21:20:00,
2013-02-05 22:30:00,51.3,42.9,29.95,WSW,252,4.0,4.0,73,0.00,,,0.00,0,Wunderground v.1.15,2013-02-05 21:30:00,
2013-02-05 22:45:00,52.1,42.2,29.94,West,272,3.0,3.0,69,0.00,,,0.00,0,Wunderground v.1.15,2013-02-05 21:45:00,
2013-02-05 22:55:00,52.5,41.5,29.93,WNW,283,4.0,4.0,66,0.00,,,0.00,0,Wunderground v.1.15,2013-02-05 21:55:00,
2013-02-05 23:05:00,53.1,41.6,29.93,WSW,252,4.0,4.0,65,0.00,,,0.00,0,Wunderground v.1.15,2013-02-05 22:05:00,
2013-02-05 23:15:00,53.4,41.1,29.92,WSW,240,5.0,5.0,63,0.00,,,0.00,0,Wunderground v.1.15,2013-02-05 22:15:00,
2013-02-05 23:25:00,53.6,41.3,29.92,SW,228,5.0,5.0,63,0.00,,,0.00,0,Wunderground v.1.15,2013-02-05 22:25:00,
2013-02-05 23:35:00,53.8,41.1,29.92,SW,222,6.0,8.0,62,0.00,,,0.00,0,Wunderground v.1.15,2013-02-05 22:35:00,
2013-02-05 23:46:00,54.2,41.0,29.91,West,269,7.0,8.0,61,0.00,,,0.00,0,Wunderground v.1.15,2013-02-05 22:46:00,